Tinaja, New Mexico
Current Conditions -  °F | °C
As of 11:53 AM on Monday 20 Oct 2014 (Local Time) from KGUP Reporting Station
Light Rain Light Rain  
Wind Chill: 56°   Ceiling: 7000
Heat Index: 56°   Visibility: 10mi
Dew Point: 46°   Wind: 3mph
Humidity: 69%   Direction: 230°SW
Pressure: 30.23"   Gusts: NA
Location:  35.1314°N, 108.496°W
Report Text: KGUP 201753Z AUTO 23003KT 10SM -RA BKN070 OVC090 13/08 A3023 RMK AO2 RAB51 SLP171 P0000 60000 T01330078 10139 20028 50001
Loading
Personal Weather Stations






























Interactive Weather Map
Tropical Storm Tracking
New forecast layout! Learn more

10-Day Weather Forecast

Advertisements
Track Severe Weather on mobile